Ober, Indiana
Current Conditions -  °F | °C
As of 10:15 AM on Monday 24 Nov 2014 (Local Time) from KOXI Reporting Station
Overcast Overcast  
Wind Chill: 25°   Ceiling: 1000
Heat Index: 37°   Visibility: 1.5mi
Dew Point: 36°   Wind: 32mph
Humidity: 95%   Direction: 240°WSW
Pressure: 29.28"   Gusts: 38mph
Location:  41.2954°N, 86.6039°W
Report Text: KOXI 241615Z AUTO 24028G33KT 1 1/2SM OVC010 03/02 A2928 RMK AO1 T00300022
Loading
Personal Weather Stations






























Interactive Weather Map New forecast layout! Learn more

10-Day Weather Forecast

Advertisements
Track Severe Weather on mobile